Time;durP1;ratioP1;P1;durP2;ratioP2;P2;SDS_P1;SDS_P2;PMS_P1;PMS_P2;Temp;Humidity;BMP_temperature;BMP_pressure;BME280_temperature;BME280_humidity;BME280_pressure;Samples;Min_cycle;Max_cycle;Signal;HPM_P1;HPM_P2
2023/10/21 00:00:29;;;;;;;52.85;28.05;;;10.10;99.90;;;;;;5092248;28;20120;-54
2023/10/21 00:02:55;;;;;;;61.10;29.42;;;10.30;99.90;;;;;;5092868;28;20032;-51
2023/10/21 00:05:21;;;;;;;51.88;26.63;;;10.30;99.90;;;;;;5092316;28;20039;-54
2023/10/21 00:07:47;;;;;;;50.78;27.25;;;10.30;99.90;;;;;;5092466;28;20044;-52
2023/10/21 00:10:13;;;;;;;52.60;26.80;;;10.40;99.90;;;;;;5092357;28;20050;-53
2023/10/21 00:12:39;;;;;;;65.55;29.67;;;10.50;99.90;;;;;;5091781;28;20489;-53
2023/10/21 00:15:09;;;;;;;55.60;28.23;;;10.40;99.90;;;;;;5092203;28;20048;-53
2023/10/21 00:17:35;;;;;;;60.13;27.92;;;10.50;99.90;;;;;;5092305;28;20123;-51
2023/10/21 00:20:02;;;;;;;57.70;27.17;;;10.40;99.90;;;;;;5092269;28;20107;-51
2023/10/21 00:22:28;;;;;;;54.35;28.65;;;10.50;99.90;;;;;;5092110;28;20473;-52
2023/10/21 00:24:53;;;;;;;59.85;28.48;;;10.50;99.90;;;;;;5091936;28;20093;-55
2023/10/21 00:27:19;;;;;;;51.15;27.15;;;10.50;99.90;;;;;;5092277;28;20470;-52
2023/10/21 00:29:45;;;;;;;65.35;29.42;;;10.60;99.90;;;;;;5092400;28;20040;-51
2023/10/21 00:32:11;;;;;;;58.95;28.60;;;10.40;99.90;;;;;;5092106;28;20071;-54
2023/10/21 00:34:39;;;;;;;55.05;26.98;;;10.60;99.90;;;;;;5091948;28;20044;-52
2023/10/21 00:37:05;;;;;;;52.33;27.55;;;10.50;99.90;;;;;;5091879;28;20040;-53
2023/10/21 00:39:35;;;;;;;52.33;25.30;;;10.70;99.90;;;;;;5091919;28;20101;-55
2023/10/21 00:42:01;;;;;;;50.83;25.17;;;10.80;99.90;;;;;;5091649;28;20090;-52
2023/10/21 00:44:27;;;;;;;53.80;24.88;;;10.80;99.90;;;;;;5092030;28;20135;-54
2023/10/21 00:46:54;;;;;;;53.97;25.48;;;10.80;99.90;;;;;;5091868;28;20596;-55
2023/10/21 00:49:20;;;;;;;53.72;25.63;;;10.90;99.90;;;;;;5091533;28;20071;-55
2023/10/21 00:51:48;;;;;;;55.72;24.63;;;10.90;99.90;;;;;;5088076;28;20039;-53
2023/10/21 00:54:16;;;;;;;55.03;26.05;;;11.00;99.90;;;;;;5091908;28;20042;-53
2023/10/21 00:56:42;;;;;;;53.90;25.40;;;11.00;99.90;;;;;;5091504;28;20382;-51
2023/10/21 00:59:11;;;;;;;53.40;24.92;;;10.80;99.90;;;;;;5091739;28;20547;-54
2023/10/21 01:01:37;;;;;;;;;;;11.00;99.90;;;;;;5091651;28;20036;-53
2023/10/21 01:04:04;;;;;;;54.67;25.40;;;11.00;99.90;;;;;;5082845;28;19931;-52
2023/10/21 01:06:31;;;;;;;61.03;27.13;;;11.10;99.90;;;;;;5091322;28;20068;-53
2023/10/21 01:08:57;;;;;;;57.80;25.90;;;11.10;99.90;;;;;;5091388;28;20048;-49
2023/10/21 01:11:23;;;;;;;58.00;28.95;;;11.00;99.90;;;;;;5095763;28;20051;-51
2023/10/21 01:13:50;;;;;;;56.50;27.75;;;11.20;99.90;;;;;;5090770;28;20036;-45
2023/10/21 01:16:16;;;;;;;55.17;27.48;;;11.10;99.90;;;;;;5089189;28;20044;-46
2023/10/21 01:18:42;;;;;;;58.38;28.70;;;11.20;99.90;;;;;;5091142;28;20051;-46
2023/10/21 01:21:09;;;;;;;75.32;31.90;;;11.00;99.90;;;;;;5090824;28;20040;-45
2023/10/21 01:23:35;;;;;;;75.05;31.98;;;11.00;99.90;;;;;;5092389;28;20040;-46
2023/10/21 01:26:01;;;;;;;68.05;31.92;;;11.20;99.90;;;;;;5095480;28;20035;-46
2023/10/21 01:28:28;;;;;;;77.18;33.42;;;11.00;99.90;;;;;;5077168;28;20565;-45
2023/10/21 01:30:54;;;;;;;71.72;33.15;;;11.10;99.90;;;;;;5095369;28;20122;-48
2023/10/21 01:33:21;;;;;;;69.80;31.25;;;11.00;99.90;;;;;;5095177;28;20036;-46
2023/10/21 01:35:46;;;;;;;73.40;33.83;;;11.10;99.90;;;;;;5094861;28;20028;-47
2023/10/21 01:38:12;;;;;;;71.53;33.97;;;11.00;99.90;;;;;;5095018;28;20032;-45
2023/10/21 01:40:38;;;;;;;72.43;33.05;;;11.00;99.90;;;;;;5094585;28;20046;-46
2023/10/21 01:43:04;;;;;;;77.57;33.53;;;10.90;99.90;;;;;;5094752;28;20131;-47
2023/10/21 01:45:29;;;;;;;79.82;34.75;;;10.80;99.90;;;;;;5095190;28;20043;-47
2023/10/21 01:47:55;;;;;;;83.93;34.40;;;11.00;99.90;;;;;;5095000;28;20112;-46
2023/10/21 01:50:21;;;;;;;82.82;34.63;;;10.80;99.90;;;;;;5094892;28;20036;-48
2023/10/21 01:52:46;;;;;;;81.07;34.25;;;10.80;99.90;;;;;;5095104;28;20032;-45
2023/10/21 01:55:12;;;;;;;86.75;34.13;;;10.90;99.90;;;;;;5094757;28;20036;-48
2023/10/21 01:57:38;;;;;;;75.35;33.20;;;10.70;99.90;;;;;;5095166;28;20123;-48
2023/10/21 02:00:08;;;;;;;68.57;32.25;;;10.90;99.90;;;;;;5076917;28;20040;-51
2023/10/21 02:02:35;;;;;;;69.63;31.73;;;10.80;99.90;;;;;;5094806;28;20505;-51
2023/10/21 02:05:01;;;;;;;59.63;31.67;;;10.90;99.90;;;;;;5094683;28;20111;-50
2023/10/21 02:07:27;;;;;;;76.00;31.73;;;10.90;99.90;;;;;;5094650;28;20123;-53
2023/10/21 02:09:53;;;;;;;66.25;32.45;;;10.90;99.90;;;;;;5094546;28;20048;-51
2023/10/21 02:12:18;;;;;;;71.45;32.47;;;10.80;99.90;;;;;;5094457;28;20036;-50
2023/10/21 02:14:44;;;;;;;78.63;33.25;;;10.80;99.90;;;;;;5094709;28;20058;-52
2023/10/21 02:17:10;;;;;;;93.70;35.10;;;10.90;99.90;;;;;;5094384;28;20539;-52
2023/10/21 02:19:35;;;;;;;75.82;34.35;;;10.80;99.90;;;;;;5094471;28;20075;-51
2023/10/21 02:22:01;;;;;;;84.45;34.40;;;10.80;99.90;;;;;;5094774;28;20065;-52
2023/10/21 02:24:27;;;;;;;74.72;33.53;;;10.70;99.90;;;;;;5094919;28;20289;-51
2023/10/21 02:26:52;;;;;;;87.85;36.20;;;10.70;99.90;;;;;;5094195;28;20081;-49
2023/10/21 02:29:18;;;;;;;90.22;35.58;;;10.80;99.90;;;;;;5094429;28;20028;-49
2023/10/21 02:31:44;;;;;;;81.03;34.78;;;10.70;99.90;;;;;;5093999;28;20043;-51
2023/10/21 02:34:10;;;;;;;92.03;35.75;;;10.60;99.90;;;;;;5093524;28;20032;-52
2023/10/21 02:36:35;;;;;;;88.20;35.35;;;10.70;99.90;;;;;;5094450;28;20048;-53
2023/10/21 02:39:01;;;;;;;77.15;33.70;;;10.70;99.90;;;;;;5094148;28;20470;-52
2023/10/21 02:41:26;;;;;;;81.53;33.38;;;10.60;99.90;;;;;;5094024;28;20086;-53
2023/10/21 02:43:53;;;;;;;86.95;35.13;;;10.50;99.90;;;;;;5103079;28;20131;-53
2023/10/21 02:46:19;;;;;;;71.50;33.35;;;10.50;99.90;;;;;;5093859;28;20047;-50
2023/10/21 04:08:35;;;;;;;64.43;31.27;;;10.20;99.90;;;;;;5091811;28;20051;-49
2023/10/21 04:11:01;;;;;;;59.45;29.88;;;10.30;99.90;;;;;;5092194;28;20044;-53
2023/10/21 04:13:26;;;;;;;67.10;32.03;;;10.30;99.90;;;;;;5057293;28;20073;-51
2023/10/21 04:15:52;;;;;;;70.20;32.22;;;10.30;99.90;;;;;;5092091;28;20070;-52
2023/10/21 04:18:18;;;;;;;58.60;29.90;;;10.30;99.90;;;;;;5091549;28;20028;-52
2023/10/21 04:20:44;;;;;;;69.57;32.25;;;10.30;99.90;;;;;;5091959;28;20036;-50
2023/10/21 04:23:09;;;;;;;62.00;31.02;;;10.30;99.90;;;;;;5091946;28;20043;-48
2023/10/21 04:25:35;;;;;;;54.50;29.25;;;10.20;99.90;;;;;;5092163;28;20530;-51
2023/10/21 04:28:01;;;;;;;52.08;28.40;;;10.30;99.90;;;;;;5091785;28;20047;-50
2023/10/21 04:30:27;;;;;;;53.85;29.10;;;10.20;99.90;;;;;;5092195;28;20040;-51
2023/10/21 04:32:52;;;;;;;52.78;28.55;;;10.30;99.90;;;;;;5091721;28;20093;-50
2023/10/21 04:35:19;;;;;;;50.92;28.20;;;10.20;99.90;;;;;;5091870;28;20043;-52
2023/10/21 04:37:45;;;;;;;57.58;29.67;;;10.20;99.90;;;;;;5091638;28;20040;-52
2023/10/21 04:40:11;;;;;;;54.35;28.55;;;10.20;99.90;;;;;;5088764;28;20075;-51
2023/10/21 04:42:38;;;;;;;47.70;26.33;;;10.10;99.90;;;;;;5080945;28;20040;-52
2023/10/21 04:45:08;;;;;;;54.22;28.48;;;10.10;99.90;;;;;;5091662;28;20118;-52
2023/10/21 04:47:34;;;;;;;42.13;25.25;;;10.10;99.90;;;;;;5091671;28;20047;-52
2023/10/21 04:50:00;;;;;;;46.42;25.70;;;10.10;99.90;;;;;;5091727;28;20047;-53
2023/10/21 04:52:26;;;;;;;44.30;25.35;;;10.00;99.90;;;;;;5091686;28;20089;-51
2023/10/21 04:54:51;;;;;;;41.05;25.20;;;10.20;99.90;;;;;;5091485;28;20075;-51
2023/10/21 04:57:17;;;;;;;45.50;25.85;;;10.00;99.90;;;;;;5091165;28;20437;-52
2023/10/21 04:59:43;;;;;;;46.83;24.98;;;10.20;99.90;;;;;;5091459;28;20141;-48
2023/10/21 05:02:09;;;;;;;45.30;24.60;;;10.10;99.90;;;;;;5091528;28;20028;-49
2023/10/21 05:04:35;;;;;;;50.53;24.88;;;10.00;99.90;;;;;;5091566;28;20501;-48
2023/10/21 05:07:02;;;;;;;37.65;22.27;;;10.20;99.90;;;;;;5099902;28;20083;-49
2023/10/21 05:09:28;;;;;;;43.88;23.58;;;10.10;99.90;;;;;;5111780;28;20043;-51
2023/10/21 05:11:54;;;;;;;38.05;23.65;;;10.10;99.90;;;;;;5111800;28;20035;-48
2023/10/21 05:14:19;;;;;;;44.35;24.10;;;10.00;99.90;;;;;;5111584;28;20059;-48
2023/10/21 05:16:46;;;;;;;41.70;23.85;;;10.20;99.90;;;;;;5111507;28;20039;-50
2023/10/21 05:19:12;;;;;;;42.17;22.75;;;10.20;99.90;;;;;;5111993;28;20035;-52
2023/10/21 05:21:37;;;;;;;44.35;23.17;;;10.00;99.90;;;;;;5111966;28;20054;-51
2023/10/21 05:24:03;;;;;;;31.88;21.48;;;10.20;99.90;;;;;;5111573;28;20031;-52
2023/10/21 05:26:29;;;;;;;40.65;22.63;;;10.20;99.90;;;;;;5111525;28;20042;-53
2023/10/21 05:28:57;;;;;;;40.90;21.88;;;10.20;99.90;;;;;;5111861;28;20044;-51
2023/10/21 05:31:23;;;;;;;44.53;22.67;;;10.00;99.90;;;;;;5111774;28;20400;-52
2023/10/21 05:33:57;;;;;;;33.15;20.38;;;10.10;99.90;;;;;;5111533;28;20047;-50
2023/10/21 05:36:24;;;;;;;34.55;20.85;;;10.20;99.90;;;;;;5111610;28;20108;-51
2023/10/21 05:38:49;;;;;;;41.15;20.90;;;10.10;99.90;;;;;;5111245;28;20470;-51
2023/10/21 05:41:15;;;;;;;37.55;19.73;;;10.10;99.90;;;;;;5111353;28;20036;-49
2023/10/21 05:43:41;;;;;;;33.15;19.92;;;10.10;99.90;;;;;;5111396;28;20042;-50
2023/10/21 05:46:06;;;;;;;35.00;19.58;;;10.20;99.90;;;;;;5111548;28;20031;-53
2023/10/21 05:48:32;;;;;;;32.97;19.95;;;10.20;99.90;;;;;;5111487;28;20046;-53
2023/10/21 05:51:01;;;;;;;35.17;19.27;;;10.20;99.90;;;;;;5111396;28;20047;-53
2023/10/21 05:53:27;;;;;;;33.45;19.95;;;10.10;99.90;;;;;;5111519;28;20036;-50
2023/10/21 05:55:57;;;;;;;33.50;19.05;;;10.30;99.90;;;;;;5111338;28;20039;-52
2023/10/21 05:58:24;;;;;;;34.35;19.73;;;10.30;99.90;;;;;;5111017;28;20074;-50
2023/10/21 06:00:50;;;;;;;33.90;20.20;;;10.20;99.90;;;;;;5111533;28;20382;-53
2023/10/21 06:03:15;;;;;;;31.35;19.90;;;10.20;99.90;;;;;;5111177;28;20092;-56
2023/10/21 06:05:42;;;;;;;33.53;19.08;;;10.30;99.90;;;;;;5111586;28;20032;-53
2023/10/21 06:08:08;;;;;;;35.45;19.13;;;10.40;99.90;;;;;;5092810;28;20048;-50
2023/10/21 06:10:34;;;;;;;31.45;19.05;;;10.40;99.90;;;;;;5093558;28;20154;-50
2023/10/21 06:13:00;;;;;;;28.33;18.42;;;10.40;99.90;;;;;;5094991;28;20492;-51
2023/10/21 06:15:27;;;;;;;35.83;20.40;;;10.30;99.90;;;;;;5087388;28;20511;-54
2023/10/21 06:17:53;;;;;;;36.00;19.10;;;10.40;99.90;;;;;;5094669;28;20039;-50
2023/10/21 06:20:18;;;;;;;32.08;18.38;;;10.40;99.90;;;;;;5076468;28;20526;-52
2023/10/21 06:22:44;;;;;;;36.58;19.85;;;10.30;99.90;;;;;;5094240;28;20040;-49
2023/10/21 06:25:10;;;;;;;31.60;18.52;;;10.40;99.90;;;;;;5094159;28;20478;-49
2023/10/21 06:27:37;;;;;;;43.65;18.85;;;10.30;99.90;;;;;;5075799;28;20040;-50
2023/10/21 06:30:06;;;;;;;31.58;18.67;;;10.40;99.90;;;;;;5094243;28;20059;-49
2023/10/21 06:32:31;;;;;;;;;;;10.50;99.90;;;;;;5094548;28;20047;-50
2023/10/21 06:34:57;;;;;;;32.17;18.23;;;10.40;99.90;;;;;;5093980;28;19931;-52
2023/10/21 06:37:23;;;;;;;31.65;18.10;;;10.50;99.90;;;;;;5094116;28;20066;-51
2023/10/21 06:39:48;;;;;;;32.83;18.45;;;10.60;99.90;;;;;;5093791;28;20379;-51
2023/10/21 06:42:14;;;;;;;33.28;17.77;;;10.50;99.90;;;;;;5094106;28;20036;-47
2023/10/21 06:44:40;;;;;;;29.30;17.80;;;10.50;99.90;;;;;;5093874;28;20111;-50
2023/10/21 06:47:05;;;;;;;32.15;18.23;;;10.60;99.90;;;;;;5094049;28;20074;-52
2023/10/21 06:49:31;;;;;;;29.50;17.75;;;10.50;99.90;;;;;;5093967;28;20032;-48
2023/10/21 06:51:58;;;;;;;34.78;18.90;;;10.70;99.90;;;;;;5093748;28;20385;-48
2023/10/21 06:54:24;;;;;;;25.75;17.33;;;10.70;99.90;;;;;;5075603;28;20453;-49
2023/10/21 06:56:50;;;;;;;28.27;17.67;;;10.70;99.90;;;;;;5093619;28;20028;-48
2023/10/21 06:59:15;;;;;;;30.70;18.10;;;10.70;99.90;;;;;;5093493;28;20527;-49
2023/10/21 07:01:41;;;;;;;36.67;19.27;;;10.60;99.90;;;;;;5093477;28;20119;-48
2023/10/21 07:04:10;;;;;;;32.55;17.33;;;10.60;99.90;;;;;;5093616;28;20039;-48
2023/10/21 07:06:39;;;;;;;30.23;18.73;;;10.70;99.90;;;;;;5093624;28;20052;-49
2023/10/21 07:09:06;;;;;;;34.60;18.05;;;10.80;99.90;;;;;;5093251;28;20036;-47
2023/10/21 07:11:32;;;;;;;28.10;17.20;;;10.80;99.90;;;;;;5093551;28;20040;-47
2023/10/21 07:13:58;;;;;;;28.55;17.52;;;10.70;99.90;;;;;;5093336;28;20042;-47
2023/10/21 07:16:25;;;;;;;29.27;17.88;;;10.90;99.90;;;;;;5093403;28;20047;-48
2023/10/21 07:18:50;;;;;;;28.27;17.20;;;10.80;99.90;;;;;;5075241;28;20040;-50
2023/10/21 07:21:16;;;;;;;31.55;17.45;;;10.80;99.90;;;;;;5093032;28;20474;-53
2023/10/21 07:23:42;;;;;;;28.45;17.23;;;10.90;99.90;;;;;;5093458;28;20369;-50
2023/10/21 07:26:07;;;;;;;28.73;17.30;;;10.80;99.90;;;;;;5074840;28;20040;-47
2023/10/21 07:28:33;;;;;;;28.02;17.88;;;11.00;99.90;;;;;;5092882;28;20036;-48
2023/10/21 07:31:00;;;;;;;34.53;18.02;;;10.80;99.90;;;;;;5066154;28;20390;-50
2023/10/21 07:33:26;;;;;;;32.83;18.35;;;10.90;99.90;;;;;;5092941;28;20054;-47
2023/10/21 07:35:52;;;;;;;28.85;18.02;;;10.90;99.90;;;;;;5090237;28;20047;-50
2023/10/21 07:38:19;;;;;;;29.05;17.63;;;11.10;99.90;;;;;;5092394;28;20059;-51
2023/10/21 07:40:45;;;;;;;30.25;17.20;;;11.10;99.90;;;;;;5090462;28;20112;-50
2023/10/21 07:43:11;;;;;;;30.95;17.10;;;11.20;99.90;;;;;;5092403;28;20036;-52
2023/10/21 07:45:43;;;;;;;28.42;17.52;;;11.10;99.90;;;;;;5092460;28;20374;-48
2023/10/21 07:48:10;;;;;;;27.92;16.45;;;11.20;99.90;;;;;;5078448;28;20036;-46
2023/10/21 07:50:37;;;;;;;26.38;15.32;;;11.30;99.90;;;;;;5092672;28;20107;-47
2023/10/21 07:53:03;;;;;;;27.80;16.23;;;11.20;99.90;;;;;;5092797;28;20036;-48
2023/10/21 07:55:29;;;;;;;26.77;16.13;;;11.10;99.90;;;;;;5082865;28;20036;-47
2023/10/21 07:57:55;;;;;;;27.98;16.83;;;11.20;99.90;;;;;;5092322;28;20134;-48
2023/10/21 08:00:21;;;;;;;27.85;17.33;;;11.30;99.90;;;;;;5092530;28;20047;-48
2023/10/21 08:02:47;;;;;;;25.25;16.73;;;11.40;99.90;;;;;;5092103;28;20036;-48
2023/10/21 08:05:13;;;;;;;31.65;16.42;;;11.40;99.90;;;;;;5092159;28;20028;-51
2023/10/21 08:07:39;;;;;;;31.75;16.88;;;11.40;99.90;;;;;;5104072;28;20051;-48
2023/10/21 08:10:05;;;;;;;30.83;18.08;;;11.30;99.90;;;;;;5112218;28;20512;-49
2023/10/21 08:12:35;;;;;;;25.90;16.58;;;11.50;99.90;;;;;;5112657;28;20047;-48
2023/10/21 08:15:05;;;;;;;29.35;17.85;;;11.60;99.90;;;;;;5112294;28;20040;-46
2023/10/21 08:17:31;;;;;;;33.88;17.23;;;11.60;99.90;;;;;;5112439;28;20046;-52
2023/10/21 08:19:56;;;;;;;28.08;16.95;;;11.60;99.90;;;;;;5112276;28;20478;-49
2023/10/21 08:22:22;;;;;;;28.48;16.45;;;11.80;99.90;;;;;;5112508;28;20035;-51
2023/10/21 08:24:48;;;;;;;26.48;15.43;;;11.70;99.90;;;;;;5112340;28;20470;-47
2023/10/21 08:27:14;;;;;;;37.22;16.10;;;11.80;99.90;;;;;;5112181;28;20024;-51
2023/10/21 08:29:41;;;;;;;25.25;15.10;;;11.90;99.90;;;;;;5112403;28;20432;-52
2023/10/21 08:32:07;;;;;;;26.85;15.82;;;11.90;99.90;;;;;;5111502;28;20040;-48
2023/10/21 08:34:35;;;;;;;27.83;15.27;;;11.90;99.90;;;;;;5112136;28;20084;-48
2023/10/21 08:37:01;;;;;;;22.92;15.73;;;12.20;99.90;;;;;;5112363;28;20100;-50
2023/10/21 08:39:27;;;;;;;23.42;15.73;;;12.30;99.90;;;;;;5112093;28;20035;-49
2023/10/21 08:41:53;;;;;;;25.98;15.75;;;12.20;99.90;;;;;;5112128;28;20099;-49
2023/10/21 08:44:22;;;;;;;25.60;15.30;;;12.40;99.90;;;;;;5112080;28;20089;-49
2023/10/21 08:46:49;;;;;;;23.88;14.57;;;12.40;99.90;;;;;;5111945;28;20431;-48
2023/10/21 08:49:18;;;;;;;24.75;15.60;;;12.50;99.90;;;;;;5112154;28;20035;-50
2023/10/21 08:51:47;;;;;;;22.98;14.98;;;12.40;99.90;;;;;;5111922;28;20051;-50
2023/10/21 08:54:14;;;;;;;25.73;15.55;;;12.50;99.90;;;;;;5111948;28;20097;-51
2023/10/21 08:56:40;;;;;;;25.52;14.60;;;12.80;99.90;;;;;;5112080;28;20439;-50
2023/10/21 08:59:05;;;;;;;25.33;14.77;;;13.00;99.90;;;;;;5111705;28;20024;-49
2023/10/21 09:01:31;;;;;;;20.83;15.27;;;12.90;99.90;;;;;;5111829;28;20488;-47
2023/10/21 09:03:57;;;;;;;20.63;15.25;;;13.10;99.90;;;;;;5111608;28;20032;-49
2023/10/21 09:06:23;;;;;;;22.92;14.50;;;13.40;99.90;;;;;;5110728;28;20036;-47
2023/10/21 09:08:49;;;;;;;20.90;14.57;;;13.40;99.90;;;;;;5091634;28;20126;-46
2023/10/21 09:11:26;;;;;;;21.77;13.18;;;13.60;99.90;;;;;;5091345;28;20115;-50
2023/10/21 09:13:56;;;;;;;21.42;12.52;;;13.80;99.90;;;;;;5091354;28;20040;-49
2023/10/21 09:16:24;;;;;;;18.23;12.15;;;13.70;99.90;;;;;;5077513;28;20074;-47
2023/10/21 09:19:06;;;;;;;18.63;12.20;;;14.00;99.90;;;;;;5091605;28;20040;-49
2023/10/21 09:21:38;;;;;;;21.35;10.77;;;13.90;99.90;;;;;;5077953;28;20044;-48
2023/10/21 09:24:20;;;;;;;17.33;11.18;;;14.10;99.90;;;;;;5091253;28;20040;-46
2023/10/21 09:26:47;;;;;;;20.45;12.35;;;14.00;99.90;;;;;;5078828;28;20036;-48
2023/10/21 09:29:18;;;;;;;17.50;11.40;;;14.00;99.90;;;;;;5091435;28;20118;-47
2023/10/21 09:31:55;;;;;;;18.27;9.80;;;14.30;99.90;;;;;;5077616;28;20072;-49
2023/10/21 09:34:24;;;;;;;16.60;9.32;;;14.20;99.90;;;;;;5091263;28;20044;-50
2023/10/21 09:36:55;;;;;;;17.15;10.30;;;14.20;99.90;;;;;;5091091;28;20043;-49
2023/10/21 09:39:21;;;;;;;18.38;10.13;;;14.20;99.90;;;;;;5091119;28;20036;-46
2023/10/21 09:41:47;;;;;;;18.17;9.65;;;14.40;99.90;;;;;;5091224;28;20079;-48
2023/10/21 09:44:15;;;;;;;21.88;9.13;;;14.60;99.90;;;;;;5091564;28;20398;-46
2023/10/21 09:46:44;;;;;;;13.88;8.77;;;14.50;99.90;;;;;;5095052;28;20394;-48
2023/10/21 09:49:10;;;;;;;;;;;14.50;99.90;;;;;;5095443;28;20119;-48
2023/10/21 09:51:52;;;;;;;14.75;7.65;;;14.40;99.90;;;;;;5094632;28;19923;-50
2023/10/21 09:54:30;;;;;;;15.32;7.40;;;14.30;99.90;;;;;;5095061;28;20043;-47
2023/10/21 09:56:57;;;;;;;10.55;6.13;;;14.40;99.90;;;;;;5095121;28;20119;-49
2023/10/21 09:59:24;;;;;;;10.10;5.93;;;14.50;99.90;;;;;;5094588;28;20055;-49
2023/10/21 10:01:52;;;;;;;16.20;6.55;;;14.40;99.90;;;;;;5094652;28;20040;-51
2023/10/21 10:04:21;;;;;;;9.98;5.90;;;14.50;99.90;;;;;;5094713;28;20558;-50
2023/10/21 10:06:56;;;;;;;13.75;5.70;;;14.30;99.90;;;;;;5099101;28;20051;-52
2023/10/21 10:09:23;;;;;;;5.70;4.55;;;14.40;99.90;;;;;;5097536;28;20059;-49
2023/10/21 10:11:50;;;;;;;10.73;5.25;;;14.50;99.90;;;;;;5096798;28;20048;-48
2023/10/21 10:14:16;;;;;;;156.80;15.57;;;14.60;99.90;;;;;;5096503;28;20042;-46
2023/10/21 10:16:44;;;;;;;9.50;5.00;;;14.40;99.90;;;;;;5114992;28;20088;-47
2023/10/21 10:19:12;;;;;;;10.10;5.03;;;14.60;99.90;;;;;;5114948;28;20032;-46
2023/10/21 10:21:41;;;;;;;7.50;4.50;;;14.20;99.90;;;;;;5114850;28;20282;-47
2023/10/21 10:24:07;;;;;;;7.97;4.28;;;14.10;99.90;;;;;;5114827;28;20039;-46
2023/10/21 10:26:38;;;;;;;7.25;4.15;;;14.00;99.90;;;;;;5114468;28;20095;-47
2023/10/21 10:29:25;;;;;;;6.82;4.28;;;13.90;99.90;;;;;;5114475;28;20047;-47
2023/10/21 10:32:11;;;;;;;7.55;4.35;;;13.80;99.90;;;;;;5096490;28;20040;-49
2023/10/21 10:34:48;;;;;;;7.15;4.03;;;13.80;99.90;;;;;;5114576;28;20443;-47
2023/10/21 10:37:50;;;;;;;6.38;4.55;;;13.80;99.90;;;;;;5114456;28;20031;-46
2023/10/21 10:40:18;;;;;;;16.00;4.40;;;14.10;99.90;;;;;;5069884;28;20055;-46
2023/10/21 10:42:44;;;;;;;4.88;2.97;;;14.10;99.90;;;;;;5114522;28;20040;-47
2023/10/21 10:45:10;;;;;;;8.10;3.47;;;14.20;99.90;;;;;;5114125;28;20078;-50
2023/10/21 10:47:38;;;;;;;6.93;3.92;;;14.10;99.90;;;;;;5114047;28;20067;-47
2023/10/21 10:50:12;;;;;;;6.20;2.85;;;14.00;99.90;;;;;;5114078;28;20073;-49
2023/10/21 10:52:38;;;;;;;5.40;2.83;;;14.10;99.90;;;;;;5114717;28;20074;-50
2023/10/21 10:55:08;;;;;;;4.20;2.80;;;13.80;99.90;;;;;;5114034;28;20043;-47
2023/10/21 10:57:34;;;;;;;6.28;3.08;;;14.00;99.90;;;;;;5114233;28;20040;-49
2023/10/21 11:00:00;;;;;;;6.57;2.72;;;13.90;99.90;;;;;;5114325;28;20044;-47
2023/10/21 11:02:28;;;;;;;5.07;2.15;;;13.80;99.90;;;;;;5114096;28;20054;-48
2023/10/21 11:04:59;;;;;;;3.63;1.93;;;13.90;99.90;;;;;;5114179;28;20942;-47
2023/10/21 11:07:30;;;;;;;2.38;2.10;;;14.20;99.90;;;;;;5103788;28;20131;-47
2023/10/21 11:10:02;;;;;;;5.05;2.30;;;13.90;99.90;;;;;;5093604;28;20079;-46
2023/10/21 11:12:28;;;;;;;3.08;1.90;;;14.20;99.90;;;;;;5093383;28;20478;-45
2023/10/21 11:14:54;;;;;;;5.72;1.70;;;13.90;99.90;;;;;;5093168;28;20043;-48
2023/10/21 11:17:20;;;;;;;3.20;1.05;;;14.20;99.90;;;;;;5093259;28;20040;-47
2023/10/21 11:19:46;;;;;;;2.83;1.50;;;13.90;99.90;;;;;;5093068;28;20032;-49
2023/10/21 11:22:28;;;;;;;3.85;1.30;;;13.70;99.90;;;;;;5093253;28;20036;-47
2023/10/21 11:24:53;;;;;;;2.95;1.02;;;13.70;99.90;;;;;;5087470;28;20039;-47
2023/10/21 11:27:19;;;;;;;4.60;1.23;;;13.90;99.90;;;;;;5093144;28;20503;-47
2023/10/21 11:29:46;;;;;;;2.20;1.15;;;14.00;99.90;;;;;;5093262;28;20516;-45
2023/10/21 11:32:13;;;;;;;3.60;1.10;;;13.90;99.90;;;;;;5093296;28;20856;-46
2023/10/21 11:34:43;;;;;;;3.67;1.85;;;14.00;99.90;;;;;;5093177;28;20138;-47
2023/10/21 11:37:10;;;;;;;4.55;1.40;;;13.90;99.90;;;;;;5092954;28;20036;-47
2023/10/21 11:39:39;;;;;;;4.07;1.48;;;14.00;99.90;;;;;;5092590;28;20048;-49
2023/10/21 11:42:17;;;;;;;5.45;1.65;;;14.40;99.90;;;;;;5092718;28;20521;-50
2023/10/21 11:44:57;;;;;;;3.23;1.30;;;14.30;99.90;;;;;;5092636;28;20042;-47
2023/10/21 11:47:28;;;;;;;4.03;1.48;;;14.50;99.90;;;;;;5092832;28;20277;-47
2023/10/21 11:49:55;;;;;;;1.67;0.98;;;14.40;99.90;;;;;;5092510;28;20063;-48
2023/10/21 11:52:23;;;;;;;2.15;1.00;;;14.30;99.90;;;;;;5092547;28;20064;-50
2023/10/21 12:04:14;;;;;;;3.72;1.10;;;14.20;99.90;;;;;;5092400;28;20079;-47
2023/10/21 12:11:19;;;;;;;3.78;0.90;;;14.10;99.90;;;;;;5112674;28;20130;-46
2023/10/21 12:14:26;;;;;;;1.10;0.82;;;14.10;99.90;;;;;;5112771;28;20122;-47
2023/10/21 12:22:49;;;;;;;0.90;0.70;;;13.90;99.90;;;;;;5112577;28;20145;-46
2023/10/21 12:33:20;;;;;;;2.42;0.68;;;14.10;99.90;;;;;;5112357;28;20039;-46
2023/10/21 12:38:40;;;;;;;3.17;0.50;;;14.40;99.90;;;;;;5112304;28;20457;-48
2023/10/21 12:43:35;;;;;;;2.90;0.70;;;14.70;99.90;;;;;;5112258;28;20042;-49
2023/10/21 12:46:17;;;;;;;5.35;0.80;;;14.80;99.90;;;;;;5112089;28;20039;-46
2023/10/21 12:48:55;;;;;;;1.73;0.70;;;14.90;99.90;;;;;;5112095;28;20059;-49
2023/10/21 12:51:22;;;;;;;1.10;0.52;;;14.90;99.90;;;;;;5112011;28;20043;-50
2023/10/21 12:53:49;;;;;;;2.90;0.80;;;14.90;99.90;;;;;;5112200;28;20039;-46
2023/10/21 12:56:15;;;;;;;3.10;0.80;;;14.80;99.90;;;;;;5112043;28;20118;-49
2023/10/21 12:58:41;;;;;;;3.28;0.80;;;14.80;99.90;;;;;;5093708;28;20130;-47
2023/10/21 13:01:14;;;;;;;0.90;0.80;;;14.80;99.90;;;;;;5111873;28;20092;-49
2023/10/21 13:03:42;;;;;;;1.80;0.70;;;14.70;99.90;;;;;;5111928;28;20039;-48
2023/10/21 13:06:10;;;;;;;1.92;0.63;;;14.70;99.90;;;;;;5111927;28;20082;-47
2023/10/21 13:08:36;;;;;;;;;;;14.80;99.90;;;;;;5094305;28;20047;-50
2023/10/21 13:11:02;;;;;;;1.80;0.47;;;14.80;99.90;;;;;;5091542;28;20011;-47
2023/10/21 13:13:29;;;;;;;4.80;0.70;;;14.70;99.90;;;;;;5091468;28;20047;-47
2023/10/21 13:15:55;;;;;;;3.55;0.70;;;14.70;99.90;;;;;;5091178;28;20512;-49
2023/10/21 13:18:22;;;;;;;1.75;0.52;;;14.80;99.90;;;;;;5092154;28;20032;-48
2023/10/21 13:20:48;;;;;;;1.05;0.50;;;14.80;99.90;;;;;;5095568;28;20040;-47
2023/10/21 13:23:14;;;;;;;1.60;0.55;;;14.80;99.90;;;;;;5095513;28;20032;-48
2023/10/21 13:25:39;;;;;;;1.85;0.68;;;14.80;99.90;;;;;;5095616;28;20106;-48
2023/10/21 13:28:05;;;;;;;3.30;0.85;;;14.80;99.90;;;;;;5095222;28;20552;-49
2023/10/21 13:30:32;;;;;;;8.18;0.90;;;14.80;99.90;;;;;;5095649;28;20086;-48
2023/10/21 13:32:58;;;;;;;2.45;0.98;;;14.70;99.90;;;;;;5095376;28;20044;-46
2023/10/21 13:35:24;;;;;;;0.73;0.45;;;14.70;99.90;;;;;;5095629;28;20059;-49
2023/10/21 13:37:51;;;;;;;3.03;0.60;;;14.60;99.90;;;;;;5095311;28;20036;-48
2023/10/21 13:40:18;;;;;;;2.42;1.00;;;14.60;99.90;;;;;;5095631;28;20497;-48
2023/10/21 13:42:50;;;;;;;5.07;0.65;;;14.60;99.90;;;;;;5095155;28;20036;-50
2023/10/21 13:45:21;;;;;;;1.75;0.73;;;14.60;99.90;;;;;;5095178;28;20047;-48
2023/10/21 13:47:47;;;;;;;4.10;1.05;;;14.60;99.90;;;;;;5095132;28;20055;-48
2023/10/21 13:50:15;;;;;;;2.63;0.90;;;14.60;99.90;;;;;;5094912;28;20044;-48
2023/10/21 13:52:45;;;;;;;2.03;0.70;;;14.50;99.90;;;;;;5095058;28;20055;-47
2023/10/21 13:55:16;;;;;;;3.78;0.70;;;14.60;99.90;;;;;;5094795;28;20036;-49
2023/10/21 13:57:46;;;;;;;7.18;1.00;;;14.60;99.90;;;;;;5094959;28;20390;-49
2023/10/21 14:03:15;;;;;;;3.45;0.75;;;14.80;99.90;;;;;;5094777;28;20047;-48
2023/10/21 14:05:45;;;;;;;3.15;0.85;;;15.00;99.90;;;;;;5094685;28;20043;-50
2023/10/21 14:08:12;;;;;;;6.55;0.80;;;15.10;99.90;;;;;;5108876;28;20121;-46
2023/10/21 14:10:46;;;;;;;4.63;0.70;;;15.20;99.90;;;;;;5114856;28;20035;-46
2023/10/21 14:13:15;;;;;;;1.85;0.73;;;15.20;99.90;;;;;;5115423;28;20457;-47
2023/10/21 14:15:41;;;;;;;5.63;0.82;;;15.20;99.90;;;;;;5114769;28;20397;-48
2023/10/21 14:18:11;;;;;;;1.95;0.80;;;15.30;99.90;;;;;;5114768;28;20035;-46
2023/10/21 14:20:41;;;;;;;3.60;1.10;;;15.20;99.90;;;;;;5114753;28;20040;-49
2023/10/21 14:23:08;;;;;;;1.50;0.70;;;15.20;99.90;;;;;;5115041;28;20036;-51
2023/10/21 14:25:38;;;;;;;4.22;1.00;;;15.20;99.90;;;;;;5114685;28;20493;-49
2023/10/21 14:28:13;;;;;;;4.78;1.00;;;15.20;99.90;;;;;;5114675;28;20036;-51
2023/10/21 14:30:49;;;;;;;2.25;0.70;;;15.20;99.90;;;;;;5113789;28;20089;-50